Teton, Idaho
Current Conditions -  °F | °C
As of 3:53 AM on Friday 28 Nov 2014 (Local Time) from KRXE Reporting Station
Clear Clear  
Wind Chill: 40°   Ceiling: Unl
Heat Index: 46°   Visibility: 10mi
Dew Point: 25°   Wind: 13mph
Humidity: 44%   Direction: 190°S
Pressure: 29.94"   Gusts: NA
Location:  43.89°N, 111.68°W
Report Text: KRXE 281053Z AUTO 19011KT 10SM CLR 08/M04 A2994 RMK AO2 SLP122 T00781039
Loading
Personal Weather Stations






























Interactive Weather Map New forecast layout! Learn more

10-Day Weather Forecast

Advertisements
Track Severe Weather on mobile